Aérodrome :
LOGIN :

S'inscrire | Disclaimer

   EN    FR    IT 

 










Légende :    VFR   VFR Marginal   IFR   IFR Intensif   IFR Très Intensif
Visi : 
Plafond : 
>= 8 km
>= 3000ft
5 à 8 km
1000 à 3000 ft
1500m à 5 km
500 à 1000 ft
800 à 1500m
200 à 500 ft
< 800m
< 200 ft
Symboles :   Orages  Brouillard  Fortes neiges  Fortes précipitations  Vent > 20 kt
SIGMETs :   Divers  Orages  Givrage  Turbulence  Onde Orograph.  Cendres Volcan.






- Altitude de l'aérodrome : 295 ft
- Code IATA : BWE


EDVE - Braunschweig

DERNIER METAR :
  • 071550Z 26008KT 230V300 CAVOK 19/07 Q1016

METARs EXPIRÉS :
  • 071520Z 24011KT 190V270 CAVOK 19/07 Q1017
  • 071450Z 24011KT 200V270 CAVOK 19/06 Q1017
  • 071420Z 24011KT 210V280 CAVOK 21/07 Q1017
  • 071350Z 25010G20KT 200V290 CAVOK 20/06 Q1017

TAF TAF EDVE
Valide du 07 à 15h jusqu'au 07 à 21h UTC


071400Z 0715/0721 26009KT CAVOK
PROB30
TEMPO 0715/0716 27015G25KT
BECMG 0718/0720 27004KT



MET'MAP, la Météo Aéronautique d'un coup d'oeil ! - Copyright ORBIFLY Décembre 2007 - Disclaimer

ORBIFLY MET'MAP TEAM :

Programmation & Développement : Alexandra Zaïnal
Sur une idée originale de : Baudouin d'Aumeries
Assistance à la programmation : Marc-Olivier Méhu
Soutien technique & logistique : Manuel Goepfert

Contact : metmap@orbifly.com




SOURCES & CREDITS :

   NOAA